Aérodrome :
LOGIN :

S'inscrire | Disclaimer

   EN    FR    IT 

 










Légende :    VFR   VFR Marginal   IFR   IFR Intensif   IFR Très Intensif
Visi : 
Plafond : 
>= 8 km
>= 3000ft
5 à 8 km
1000 à 3000 ft
1500m à 5 km
500 à 1000 ft
800 à 1500m
200 à 500 ft
< 800m
< 200 ft
Symboles :   Orages  Brouillard  Fortes neiges  Fortes précipitations  Vent > 20 kt
SIGMETs :   Divers  Orages  Givrage  Turbulence  Onde Orograph.  Cendres Volcan.







- Altitude de l'aérodrome : 392 ft
- Code IATA : CDG
- Voir les cartes d'approche


LFPG - Paris-Aeroport Charles De Gaulle

DERNIER METAR :
  • 200730Z 19006KT 9999 BKN040 05/03 Q1022 NOSIG

METARs EXPIRÉS :
  • 200700Z 19007KT 9999 BKN040 05/03 Q1022 NOSIG
  • 200630Z 19006KT 9999 BKN040 BKN200 04/03 Q1022 NOSIG
  • 200600Z 18007KT 9999 FEW020 BKN200 04/02 Q1022 NOSIG
  • 200530Z 18005KT 9999 FEW026 BKN200 04/02 Q1022 NOSIG
  • 200500Z 18006KT 9999 FEW026 BKN200 04/02 Q1023 NOSIG

TAF TAF LFPG
Valide du 20 à 06h jusqu'au 21 à 12h UTC


200500Z 2006/2112 20005KT 9999 BKN025
TEMPO 2006/2011 BKN006
PROB30
TEMPO 2008/2010 4000 -DZRA BR
BECMG 2022/2024 BKN010
BECMG 2104/2106 BKN005
BECMG 2110/2112 BKN008 TX11/2015Z TN04/2006Z
ATIS : +33 1 48 62 10 92
Pas de NOTAMs connus pour ce terrain.



MET'MAP, la Météo Aéronautique d'un coup d'oeil ! - Copyright ORBIFLY Décembre 2007 - Disclaimer

ORBIFLY MET'MAP TEAM :

Programmation & Développement : Alexandra Zaïnal
Conception & Développement : Baudouin d'Aumeries
Co-Programmation & Développement : Marc-Olivier Méhu
Soutien technique & logistique : Manuel Goepfert

Contact : metmap@orbifly.com




SOURCES & CREDITS :

   NOAA